sensor_id;sensor_type;location;lat;lon;timestamp;pressure;altitude;pressure_sealevel;temperature;humidity
77019;BME280;66044;53.142;17.962;2022-12-18T00:01:30;102551.15;;;-2.89;70.80
77019;BME280;66044;53.142;17.962;2022-12-18T00:04:02;102553.91;;;-2.82;70.63
77019;BME280;66044;53.142;17.962;2022-12-18T00:06:30;102558.67;;;-2.73;70.52
77019;BME280;66044;53.142;17.962;2022-12-18T00:08:57;102562.63;;;-2.68;70.57
77019;BME280;66044;53.142;17.962;2022-12-18T00:11:26;102555.25;;;-2.65;70.29
77019;BME280;66044;53.142;17.962;2022-12-18T00:13:54;102565.54;;;-2.65;70.40
77019;BME280;66044;53.142;17.962;2022-12-18T00:16:22;102565.79;;;-2.64;70.67
77019;BME280;66044;53.142;17.962;2022-12-18T00:18:52;102571.48;;;-2.65;70.87
77019;BME280;66044;53.142;17.962;2022-12-18T00:21:19;102570.23;;;-2.67;70.36
77019;BME280;66044;53.142;17.962;2022-12-18T00:23:48;102567.63;;;-2.72;70.56
77019;BME280;66044;53.142;17.962;2022-12-18T00:26:23;102569.04;;;-2.73;70.85
77019;BME280;66044;53.142;17.962;2022-12-18T00:28:50;102570.05;;;-2.76;70.75
77019;BME280;66044;53.142;17.962;2022-12-18T00:31:20;102585.20;;;-2.78;70.75
77019;BME280;66044;53.142;17.962;2022-12-18T00:33:47;102574.69;;;-2.80;70.81
77019;BME280;66044;53.142;17.962;2022-12-18T00:36:16;102580.02;;;-2.84;70.51
77019;BME280;66044;53.142;17.962;2022-12-18T00:38:44;102586.09;;;-2.87;70.86
77019;BME280;66044;53.142;17.962;2022-12-18T00:41:12;102584.13;;;-2.88;70.83
77019;BME280;66044;53.142;17.962;2022-12-18T00:43:39;102589.20;;;-2.90;70.64
77019;BME280;66044;53.142;17.962;2022-12-18T00:46:06;102598.34;;;-2.85;70.75
77019;BME280;66044;53.142;17.962;2022-12-18T00:48:32;102603.06;;;-2.77;70.54
77019;BME280;66044;53.142;17.962;2022-12-18T00:50:59;102605.66;;;-2.69;70.44
77019;BME280;66044;53.142;17.962;2022-12-18T00:53:25;102603.83;;;-2.61;70.71
77019;BME280;66044;53.142;17.962;2022-12-18T00:55:52;102610.15;;;-2.56;70.22
77019;BME280;66044;53.142;17.962;2022-12-18T00:58:18;102612.82;;;-2.52;70.62
77019;BME280;66044;53.142;17.962;2022-12-18T01:00:45;102609.23;;;-2.50;70.50
77019;BME280;66044;53.142;17.962;2022-12-18T01:03:15;102610.94;;;-2.50;70.63
77019;BME280;66044;53.142;17.962;2022-12-18T01:05:42;102610.02;;;-2.52;70.49
77019;BME280;66044;53.142;17.962;2022-12-18T01:08:09;102622.90;;;-2.57;70.70
77019;BME280;66044;53.142;17.962;2022-12-18T01:10:35;102630.59;;;-2.60;70.65
77019;BME280;66044;53.142;17.962;2022-12-18T01:13:02;102631.77;;;-2.60;70.78
77019;BME280;66044;53.142;17.962;2022-12-18T01:15:28;102631.33;;;-2.63;70.28
77019;BME280;66044;53.142;17.962;2022-12-18T01:17:55;102628.31;;;-2.66;70.35
77019;BME280;66044;53.142;17.962;2022-12-18T01:20:21;102620.94;;;-2.72;70.71
77019;BME280;66044;53.142;17.962;2022-12-18T01:22:48;102618.88;;;-2.77;70.80
77019;BME280;66044;53.142;17.962;2022-12-18T01:25:14;102620.27;;;-2.76;70.72
77019;BME280;66044;53.142;17.962;2022-12-18T01:27:41;102625.77;;;-2.70;70.60
77019;BME280;66044;53.142;17.962;2022-12-18T01:30:07;102627.19;;;-2.66;70.44
77019;BME280;66044;53.142;17.962;2022-12-18T01:32:34;102629.80;;;-2.67;70.36
77019;BME280;66044;53.142;17.962;2022-12-18T01:35:00;102640.80;;;-2.68;70.81
77019;BME280;66044;53.142;17.962;2022-12-18T01:37:27;102645.27;;;-2.66;70.37
77019;BME280;66044;53.142;17.962;2022-12-18T01:39:53;102652.91;;;-2.63;70.67
77019;BME280;66044;53.142;17.962;2022-12-18T01:42:23;102655.77;;;-2.60;70.65
77019;BME280;66044;53.142;17.962;2022-12-18T01:44:57;102656.07;;;-2.61;70.52
77019;BME280;66044;53.142;17.962;2022-12-18T01:50:11;102647.63;;;-2.65;70.29
77019;BME280;66044;53.142;17.962;2022-12-18T01:52:41;102647.63;;;-2.71;70.43
77019;BME280;66044;53.142;17.962;2022-12-18T01:55:10;102647.36;;;-2.76;70.26
77019;BME280;66044;53.142;17.962;2022-12-18T01:57:37;102645.20;;;-2.79;70.45
77019;BME280;66044;53.142;17.962;2022-12-18T02:00:12;102648.60;;;-2.73;70.42
77019;BME280;66044;53.142;17.962;2022-12-18T02:02:40;102653.13;;;-2.66;70.50
77019;BME280;66044;53.142;17.962;2022-12-18T02:05:07;102659.98;;;-2.59;70.46
77019;BME280;66044;53.142;17.962;2022-12-18T02:12:52;102663.91;;;-2.41;69.97
77019;BME280;66044;53.142;17.962;2022-12-18T02:15:36;102665.19;;;-2.43;69.96
77019;BME280;66044;53.142;17.962;2022-12-18T02:18:10;102671.94;;;-2.47;70.17
77019;BME280;66044;53.142;17.962;2022-12-18T02:20:51;102685.45;;;-2.49;70.08
77019;BME280;66044;53.142;17.962;2022-12-18T02:26:05;102681.12;;;-2.53;69.97
77019;BME280;66044;53.142;17.962;2022-12-18T02:28:38;102682.27;;;-2.55;70.12
77019;BME280;66044;53.142;17.962;2022-12-18T02:31:10;102691.33;;;-2.57;70.05
77019;BME280;66044;53.142;17.962;2022-12-18T02:33:38;102698.70;;;-2.59;70.07
77019;BME280;66044;53.142;17.962;2022-12-18T02:36:06;102700.91;;;-2.61;70.24
77019;BME280;66044;53.142;17.962;2022-12-18T02:38:34;102699.08;;;-2.63;70.10
77019;BME280;66044;53.142;17.962;2022-12-18T02:41:02;102705.68;;;-2.70;70.02
77019;BME280;66044;53.142;17.962;2022-12-18T02:43:29;102710.42;;;-2.76;70.05
77019;BME280;66044;53.142;17.962;2022-12-18T02:45:58;102708.77;;;-2.80;70.05
77019;BME280;66044;53.142;17.962;2022-12-18T02:48:33;102706.11;;;-2.83;70.18
77019;BME280;66044;53.142;17.962;2022-12-18T02:51:24;102706.25;;;-2.82;69.98
77019;BME280;66044;53.142;17.962;2022-12-18T02:54:06;102711.84;;;-2.76;70.14
77019;BME280;66044;53.142;17.962;2022-12-18T02:56:38;102706.67;;;-2.71;70.25
77019;BME280;66044;53.142;17.962;2022-12-18T02:59:13;102705.89;;;-2.68;70.06
77019;BME280;66044;53.142;17.962;2022-12-18T03:02:11;102705.89;;;-2.66;69.98
77019;BME280;66044;53.142;17.962;2022-12-18T03:04:47;102706.42;;;-2.66;69.97
77019;BME280;66044;53.142;17.962;2022-12-18T03:07:19;102706.46;;;-2.68;70.09
77019;BME280;66044;53.142;17.962;2022-12-18T03:09:50;102710.32;;;-2.72;69.98
77019;BME280;66044;53.142;17.962;2022-12-18T03:12:30;102716.77;;;-2.75;70.22
77019;BME280;66044;53.142;17.962;2022-12-18T03:17:34;102721.89;;;-2.82;69.91
77019;BME280;66044;53.142;17.962;2022-12-18T03:20:14;102720.53;;;-2.86;70.06
77019;BME280;66044;53.142;17.962;2022-12-18T03:22:47;102727.63;;;-2.90;70.45
77019;BME280;66044;53.142;17.962;2022-12-18T03:25:17;102723.80;;;-2.93;70.30
77019;BME280;66044;53.142;17.962;2022-12-18T03:27:49;102724.95;;;-2.98;70.33
77019;BME280;66044;53.142;17.962;2022-12-18T03:30:17;102725.23;;;-3.03;69.95
77019;BME280;66044;53.142;17.962;2022-12-18T03:32:48;102726.86;;;-3.01;70.05
77019;BME280;66044;53.142;17.962;2022-12-18T03:35:22;102729.55;;;-2.96;70.39
77019;BME280;66044;53.142;17.962;2022-12-18T03:37:52;102729.25;;;-2.91;70.22
77019;BME280;66044;53.142;17.962;2022-12-18T03:40:20;102738.10;;;-2.84;69.94
77019;BME280;66044;53.142;17.962;2022-12-18T03:42:57;102745.80;;;-2.79;70.19
77019;BME280;66044;53.142;17.962;2022-12-18T03:45:32;102749.48;;;-2.76;69.85
77019;BME280;66044;53.142;17.962;2022-12-18T03:48:08;102747.84;;;-2.76;70.04
77019;BME280;66044;53.142;17.962;2022-12-18T03:53:50;102755.33;;;-2.80;70.11
77019;BME280;66044;53.142;17.962;2022-12-18T03:56:22;102760.30;;;-2.84;70.01
77019;BME280;66044;53.142;17.962;2022-12-18T03:58:52;102760.13;;;-2.87;70.21
77019;BME280;66044;53.142;17.962;2022-12-18T04:01:20;102758.39;;;-2.87;70.00
77019;BME280;66044;53.142;17.962;2022-12-18T04:03:50;102757.66;;;-2.86;69.92
77019;BME280;66044;53.142;17.962;2022-12-18T04:06:17;102750.66;;;-2.89;70.22
77019;BME280;66044;53.142;17.962;2022-12-18T04:08:45;102752.66;;;-2.94;70.01
77019;BME280;66044;53.142;17.962;2022-12-18T04:11:12;102754.10;;;-2.99;70.00
77019;BME280;66044;53.142;17.962;2022-12-18T04:13:39;102755.83;;;-3.01;70.10
77019;BME280;66044;53.142;17.962;2022-12-18T04:16:05;102767.73;;;-3.03;70.24
77019;BME280;66044;53.142;17.962;2022-12-18T04:18:32;102770.30;;;-3.04;70.54
77019;BME280;66044;53.142;17.962;2022-12-18T04:20:58;102770.31;;;-3.05;70.18
77019;BME280;66044;53.142;17.962;2022-12-18T04:23:25;102768.23;;;-3.08;69.97
77019;BME280;66044;53.142;17.962;2022-12-18T04:25:51;102765.86;;;-3.10;69.89
77019;BME280;66044;53.142;17.962;2022-12-18T04:28:18;102773.36;;;-3.09;69.83
77019;BME280;66044;53.142;17.962;2022-12-18T04:30:49;102772.89;;;-3.03;70.09
77019;BME280;66044;53.142;17.962;2022-12-18T04:33:18;102777.61;;;-2.98;69.42
77019;BME280;66044;53.142;17.962;2022-12-18T04:35:45;102778.27;;;-2.93;70.06
77019;BME280;66044;53.142;17.962;2022-12-18T04:38:11;102781.17;;;-2.88;69.41
77019;BME280;66044;53.142;17.962;2022-12-18T04:40:38;102781.99;;;-2.83;69.58
77019;BME280;66044;53.142;17.962;2022-12-18T04:43:05;102782.40;;;-2.81;69.52
77019;BME280;66044;53.142;17.962;2022-12-18T04:45:32;102783.59;;;-2.79;69.48
77019;BME280;66044;53.142;17.962;2022-12-18T04:47:59;102782.90;;;-2.79;69.49
77019;BME280;66044;53.142;17.962;2022-12-18T04:50:26;102790.84;;;-2.77;69.65
77019;BME280;66044;53.142;17.962;2022-12-18T04:52:53;102789.54;;;-2.75;69.67
77019;BME280;66044;53.142;17.962;2022-12-18T04:55:19;102797.10;;;-2.75;69.46
77019;BME280;66044;53.142;17.962;2022-12-18T04:57:46;102799.45;;;-2.77;69.21
77019;BME280;66044;53.142;17.962;2022-12-18T05:00:13;102800.44;;;-2.84;69.43
77019;BME280;66044;53.142;17.962;2022-12-18T05:02:39;102804.69;;;-2.90;69.52
77019;BME280;66044;53.142;17.962;2022-12-18T05:05:06;102804.39;;;-2.94;69.57
77019;BME280;66044;53.142;17.962;2022-12-18T05:07:33;102805.42;;;-2.99;69.68
77019;BME280;66044;53.142;17.962;2022-12-18T05:10:00;102806.18;;;-3.03;69.69
77019;BME280;66044;53.142;17.962;2022-12-18T05:12:26;102805.66;;;-3.09;69.51
77019;BME280;66044;53.142;17.962;2022-12-18T05:14:53;102810.55;;;-3.14;69.28
77019;BME280;66044;53.142;17.962;2022-12-18T05:17:19;102814.23;;;-3.20;69.63
77019;BME280;66044;53.142;17.962;2022-12-18T05:19:46;102820.27;;;-3.25;69.44
77019;BME280;66044;53.142;17.962;2022-12-18T05:22:12;102826.13;;;-3.28;70.04
77019;BME280;66044;53.142;17.962;2022-12-18T05:24:39;102827.66;;;-3.28;69.61
77019;BME280;66044;53.142;17.962;2022-12-18T05:27:05;102835.02;;;-3.26;69.96
77019;BME280;66044;53.142;17.962;2022-12-18T05:29:32;102841.65;;;-3.24;69.73
77019;BME280;66044;53.142;17.962;2022-12-18T05:31:58;102847.81;;;-3.19;69.64
77019;BME280;66044;53.142;17.962;2022-12-18T05:34:25;102853.24;;;-3.15;69.81
77019;BME280;66044;53.142;17.962;2022-12-18T05:36:51;102856.65;;;-3.14;69.54
77019;BME280;66044;53.142;17.962;2022-12-18T05:39:18;102855.66;;;-3.16;69.57
77019;BME280;66044;53.142;17.962;2022-12-18T05:41:44;102862.27;;;-3.20;69.85
77019;BME280;66044;53.142;17.962;2022-12-18T05:44:11;102863.88;;;-3.23;69.75
77019;BME280;66044;53.142;17.962;2022-12-18T05:46:40;102860.82;;;-3.25;70.07
77019;BME280;66044;53.142;17.962;2022-12-18T05:49:06;102862.83;;;-3.29;69.79
77019;BME280;66044;53.142;17.962;2022-12-18T05:51:33;102866.75;;;-3.34;69.46
77019;BME280;66044;53.142;17.962;2022-12-18T05:54:00;102868.38;;;-3.39;70.01
77019;BME280;66044;53.142;17.962;2022-12-18T05:56:26;102874.84;;;-3.43;69.87
77019;BME280;66044;53.142;17.962;2022-12-18T05:58:53;102877.92;;;-3.45;69.51
77019;BME280;66044;53.142;17.962;2022-12-18T06:01:23;102877.89;;;-3.48;69.95
77019;BME280;66044;53.142;17.962;2022-12-18T06:03:50;102878.23;;;-3.52;69.70
77019;BME280;66044;53.142;17.962;2022-12-18T06:06:20;102883.55;;;-3.55;69.59
77019;BME280;66044;53.142;17.962;2022-12-18T06:08:47;102887.09;;;-3.61;69.63
77019;BME280;66044;53.142;17.962;2022-12-18T06:11:16;102886.13;;;-3.64;69.84
77019;BME280;66044;53.142;17.962;2022-12-18T06:13:44;102889.34;;;-3.63;69.51
77019;BME280;66044;53.142;17.962;2022-12-18T06:16:10;102890.19;;;-3.62;69.71
77019;BME280;66044;53.142;17.962;2022-12-18T06:18:37;102894.30;;;-3.63;69.37
77019;BME280;66044;53.142;17.962;2022-12-18T06:21:04;102898.16;;;-3.68;68.99
77019;BME280;66044;53.142;17.962;2022-12-18T06:23:30;102905.54;;;-3.69;69.26
77019;BME280;66044;53.142;17.962;2022-12-18T06:25:57;102914.23;;;-3.71;69.28
77019;BME280;66044;53.142;17.962;2022-12-18T06:28:24;102914.64;;;-3.72;69.27
77019;BME280;66044;53.142;17.962;2022-12-18T06:30:50;102920.53;;;-3.78;68.73
77019;BME280;66044;53.142;17.962;2022-12-18T06:33:17;102920.08;;;-3.83;69.01
77019;BME280;66044;53.142;17.962;2022-12-18T06:35:43;102918.94;;;-3.90;68.65
77019;BME280;66044;53.142;17.962;2022-12-18T06:38:10;102918.52;;;-3.97;68.69
77019;BME280;66044;53.142;17.962;2022-12-18T06:40:37;102925.29;;;-4.04;69.01
77019;BME280;66044;53.142;17.962;2022-12-18T06:43:05;102935.09;;;-4.10;69.09
77019;BME280;66044;53.142;17.962;2022-12-18T06:45:32;102937.97;;;-4.19;69.10
77019;BME280;66044;53.142;17.962;2022-12-18T06:47:59;102944.33;;;-4.25;69.15
77019;BME280;66044;53.142;17.962;2022-12-18T06:50:25;102945.56;;;-4.32;68.91
77019;BME280;66044;53.142;17.962;2022-12-18T06:52:52;102946.05;;;-4.40;69.28
77019;BME280;66044;53.142;17.962;2022-12-18T06:55:18;102950.51;;;-4.43;69.48
77019;BME280;66044;53.142;17.962;2022-12-18T06:57:45;102961.08;;;-4.43;69.46
77019;BME280;66044;53.142;17.962;2022-12-18T07:00:11;102968.36;;;-4.39;69.24
77019;BME280;66044;53.142;17.962;2022-12-18T07:02:38;102970.64;;;-4.35;69.23
77019;BME280;66044;53.142;17.962;2022-12-18T07:05:05;102966.91;;;-4.31;69.08
77019;BME280;66044;53.142;17.962;2022-12-18T07:07:34;102972.70;;;-4.29;69.04
77019;BME280;66044;53.142;17.962;2022-12-18T07:10:00;102976.79;;;-4.33;69.07
77019;BME280;66044;53.142;17.962;2022-12-18T07:12:27;102978.70;;;-4.38;69.21
77019;BME280;66044;53.142;17.962;2022-12-18T07:14:54;102979.27;;;-4.41;69.44
77019;BME280;66044;53.142;17.962;2022-12-18T07:17:20;102978.05;;;-4.44;68.93
77019;BME280;66044;53.142;17.962;2022-12-18T07:19:46;102982.30;;;-4.48;69.13
77019;BME280;66044;53.142;17.962;2022-12-18T07:22:13;102984.63;;;-4.48;69.32
77019;BME280;66044;53.142;17.962;2022-12-18T07:24:39;102989.73;;;-4.52;69.44
77019;BME280;66044;53.142;17.962;2022-12-18T07:27:06;102990.69;;;-4.54;68.97
77019;BME280;66044;53.142;17.962;2022-12-18T07:29:32;102988.79;;;-4.56;69.52
77019;BME280;66044;53.142;17.962;2022-12-18T07:31:59;102991.15;;;-4.58;69.48
77019;BME280;66044;53.142;17.962;2022-12-18T07:34:25;102998.35;;;-4.60;69.30
77019;BME280;66044;53.142;17.962;2022-12-18T07:36:51;103009.35;;;-4.58;68.98
77019;BME280;66044;53.142;17.962;2022-12-18T07:39:18;103015.51;;;-4.54;69.23
77019;BME280;66044;53.142;17.962;2022-12-18T07:41:44;103018.27;;;-4.49;69.01
77019;BME280;66044;53.142;17.962;2022-12-18T07:44:31;103018.63;;;-4.46;68.72
77019;BME280;66044;53.142;17.962;2022-12-18T07:46:57;103022.80;;;-4.44;68.59
77019;BME280;66044;53.142;17.962;2022-12-18T07:49:24;103026.12;;;-4.43;68.69
77019;BME280;66044;53.142;17.962;2022-12-18T07:51:50;103025.92;;;-4.43;69.20
77019;BME280;66044;53.142;17.962;2022-12-18T07:54:16;103020.02;;;-4.43;68.85
77019;BME280;66044;53.142;17.962;2022-12-18T07:56:43;103017.16;;;-4.47;68.46
77019;BME280;66044;53.142;17.962;2022-12-18T07:59:10;103015.72;;;-4.48;68.94
77019;BME280;66044;53.142;17.962;2022-12-18T08:01:36;103021.67;;;-4.48;68.86
77019;BME280;66044;53.142;17.962;2022-12-18T08:04:03;103031.05;;;-4.48;68.41
77019;BME280;66044;53.142;17.962;2022-12-18T08:06:30;103036.69;;;-4.50;68.60
77019;BME280;66044;53.142;17.962;2022-12-18T08:08:57;103044.49;;;-4.51;68.51
77019;BME280;66044;53.142;17.962;2022-12-18T08:11:25;103046.33;;;-4.50;68.08
77019;BME280;66044;53.142;17.962;2022-12-18T08:13:53;103046.07;;;-4.49;68.74
77019;BME280;66044;53.142;17.962;2022-12-18T08:16:20;103054.23;;;-4.48;68.39
77019;BME280;66044;53.142;17.962;2022-12-18T08:18:47;103052.58;;;-4.43;68.26
77019;BME280;66044;53.142;17.962;2022-12-18T08:21:17;103053.16;;;-4.37;67.90
77019;BME280;66044;53.142;17.962;2022-12-18T08:23:44;103054.91;;;-4.31;68.04
77019;BME280;66044;53.142;17.962;2022-12-18T08:26:11;103056.92;;;-4.25;68.10
77019;BME280;66044;53.142;17.962;2022-12-18T08:28:38;103058.68;;;-4.19;68.26
77019;BME280;66044;53.142;17.962;2022-12-18T08:31:06;103060.70;;;-4.15;68.14
77019;BME280;66044;53.142;17.962;2022-12-18T08:33:33;103064.45;;;-4.11;67.71
77019;BME280;66044;53.142;17.962;2022-12-18T08:36:01;103074.85;;;-4.07;67.81
77019;BME280;66044;53.142;17.962;2022-12-18T08:38:28;103088.45;;;-4.02;67.18
77019;BME280;66044;53.142;17.962;2022-12-18T08:41:09;103095.80;;;-3.98;67.56
77019;BME280;66044;53.142;17.962;2022-12-18T08:43:36;103096.58;;;-3.92;67.21
77019;BME280;66044;53.142;17.962;2022-12-18T08:46:23;103092.16;;;-3.90;67.46
77019;BME280;66044;53.142;17.962;2022-12-18T08:48:50;103098.73;;;-3.92;67.77
77019;BME280;66044;53.142;17.962;2022-12-18T08:51:17;103095.70;;;-3.94;67.61
77019;BME280;66044;53.142;17.962;2022-12-18T08:53:44;103096.44;;;-4.00;67.43
77019;BME280;66044;53.142;17.962;2022-12-18T08:56:12;103090.46;;;-4.07;67.56
77019;BME280;66044;53.142;17.962;2022-12-18T08:58:39;103089.95;;;-4.11;67.21
77019;BME280;66044;53.142;17.962;2022-12-18T09:01:08;103087.11;;;-4.06;67.57
77019;BME280;66044;53.142;17.962;2022-12-18T09:03:36;103080.45;;;-3.98;67.52
77019;BME280;66044;53.142;17.962;2022-12-18T09:06:03;103078.98;;;-3.91;67.22
77019;BME280;66044;53.142;17.962;2022-12-18T09:08:30;103081.38;;;-3.84;66.96
77019;BME280;66044;53.142;17.962;2022-12-18T09:10:56;103075.65;;;-3.84;67.15
77019;BME280;66044;53.142;17.962;2022-12-18T09:13:23;103072.64;;;-3.86;66.81
77019;BME280;66044;53.142;17.962;2022-12-18T09:15:51;103068.76;;;-3.92;67.08
77019;BME280;66044;53.142;17.962;2022-12-18T09:18:20;103064.08;;;-3.97;67.00
77019;BME280;66044;53.142;17.962;2022-12-18T09:20:46;103070.60;;;-3.99;67.00
77019;BME280;66044;53.142;17.962;2022-12-18T09:23:13;103061.79;;;-3.98;66.60
77019;BME280;66044;53.142;17.962;2022-12-18T09:25:40;103058.30;;;-3.94;66.99
77019;BME280;66044;53.142;17.962;2022-12-18T09:28:25;103060.86;;;-3.95;67.23
77019;BME280;66044;53.142;17.962;2022-12-18T09:30:52;103059.70;;;-4.00;67.45
77019;BME280;66044;53.142;17.962;2022-12-18T09:33:18;103058.88;;;-3.97;67.44
77019;BME280;66044;53.142;17.962;2022-12-18T09:35:45;103057.45;;;-3.88;67.39
77019;BME280;66044;53.142;17.962;2022-12-18T09:38:15;103061.56;;;-3.78;67.03
77019;BME280;66044;53.142;17.962;2022-12-18T09:40:53;103062.29;;;-3.70;66.81
77019;BME280;66044;53.142;17.962;2022-12-18T09:43:29;103069.42;;;-3.67;66.87
77019;BME280;66044;53.142;17.962;2022-12-18T09:46:01;103071.08;;;-3.69;66.96
77019;BME280;66044;53.142;17.962;2022-12-18T09:48:35;103074.01;;;-3.78;66.90
77019;BME280;66044;53.142;17.962;2022-12-18T09:51:15;103076.04;;;-3.91;67.13
77019;BME280;66044;53.142;17.962;2022-12-18T09:53:49;103074.58;;;-4.05;67.04
77019;BME280;66044;53.142;17.962;2022-12-18T09:56:19;103071.38;;;-4.18;67.69
77019;BME280;66044;53.142;17.962;2022-12-18T09:59:00;103070.70;;;-4.22;67.58
77019;BME280;66044;53.142;17.962;2022-12-18T10:01:27;103063.52;;;-4.23;67.44
77019;BME280;66044;53.142;17.962;2022-12-18T10:03:54;103056.70;;;-4.23;67.02
77019;BME280;66044;53.142;17.962;2022-12-18T10:14:41;103065.95;;;-3.79;66.70
77019;BME280;66044;53.142;17.962;2022-12-18T10:19:58;103069.25;;;-3.67;67.06
77019;BME280;66044;53.142;17.962;2022-12-18T10:25:15;103073.39;;;-3.74;67.34
77019;BME280;66044;53.142;17.962;2022-12-18T10:27:43;103084.81;;;-3.77;67.02
77019;BME280;66044;53.142;17.962;2022-12-18T10:30:19;103091.05;;;-3.82;66.65
77019;BME280;66044;53.142;17.962;2022-12-18T10:32:45;103091.02;;;-3.80;67.56
77019;BME280;66044;53.142;17.962;2022-12-18T10:35:20;103091.73;;;-3.78;66.96
77019;BME280;66044;53.142;17.962;2022-12-18T10:40:27;103082.67;;;-3.71;67.15
77019;BME280;66044;53.142;17.962;2022-12-18T10:43:14;103076.30;;;-3.64;66.84
77019;BME280;66044;53.142;17.962;2022-12-18T10:45:42;103085.40;;;-3.66;66.82
77019;BME280;66044;53.142;17.962;2022-12-18T10:48:20;103087.64;;;-3.72;66.07
77019;BME280;66044;53.142;17.962;2022-12-18T10:50:49;103090.10;;;-3.77;66.57
77019;BME280;66044;53.142;17.962;2022-12-18T10:53:24;103091.64;;;-3.80;67.04
77019;BME280;66044;53.142;17.962;2022-12-18T10:55:56;103091.68;;;-3.82;66.90
77019;BME280;66044;53.142;17.962;2022-12-18T10:58:24;103100.02;;;-3.83;66.49
77019;BME280;66044;53.142;17.962;2022-12-18T11:03:41;103109.10;;;-3.90;66.46
77019;BME280;66044;53.142;17.962;2022-12-18T11:06:14;103110.21;;;-3.98;66.57
77019;BME280;66044;53.142;17.962;2022-12-18T11:08:43;103110.59;;;-4.06;66.50
77019;BME280;66044;53.142;17.962;2022-12-18T11:11:20;103107.49;;;-4.08;67.10
77019;BME280;66044;53.142;17.962;2022-12-18T11:13:57;103108.55;;;-4.04;66.48
77019;BME280;66044;53.142;17.962;2022-12-18T11:16:26;103113.70;;;-3.94;66.62
77019;BME280;66044;53.142;17.962;2022-12-18T11:18:53;103114.58;;;-3.87;66.92
77019;BME280;66044;53.142;17.962;2022-12-18T11:21:20;103116.63;;;-3.76;67.02
77019;BME280;66044;53.142;17.962;2022-12-18T11:23:50;103112.39;;;-3.66;66.26
77019;BME280;66044;53.142;17.962;2022-12-18T11:26:17;103110.42;;;-3.59;66.77
77019;BME280;66044;53.142;17.962;2022-12-18T11:28:51;103104.56;;;-3.56;66.06
77019;BME280;66044;53.142;17.962;2022-12-18T11:31:25;103093.83;;;-3.60;65.83
77019;BME280;66044;53.142;17.962;2022-12-18T11:33:58;103093.20;;;-3.62;66.16
77019;BME280;66044;53.142;17.962;2022-12-18T11:36:30;103091.80;;;-3.65;66.28
77019;BME280;66044;53.142;17.962;2022-12-18T11:39:05;103095.23;;;-3.61;66.45
77019;BME280;66044;53.142;17.962;2022-12-18T11:41:45;103094.78;;;-3.59;66.26
77019;BME280;66044;53.142;17.962;2022-12-18T11:44:47;103090.73;;;-3.68;66.10
77019;BME280;66044;53.142;17.962;2022-12-18T11:50:01;103097.20;;;-3.91;66.15
77019;BME280;66044;53.142;17.962;2022-12-18T11:52:37;103097.25;;;-3.93;66.72
77019;BME280;66044;53.142;17.962;2022-12-18T11:55:15;103100.92;;;-3.87;66.85
77019;BME280;66044;53.142;17.962;2022-12-18T11:57:54;103108.57;;;-3.80;66.48
77019;BME280;66044;53.142;17.962;2022-12-18T12:00:23;103110.55;;;-3.77;66.77
77019;BME280;66044;53.142;17.962;2022-12-18T12:05:31;103113.85;;;-3.83;66.42
77019;BME280;66044;53.142;17.962;2022-12-18T12:16:34;103119.51;;;-4.02;66.50
77019;BME280;66044;53.142;17.962;2022-12-18T12:19:07;103124.56;;;-4.04;66.80
77019;BME280;66044;53.142;17.962;2022-12-18T12:21:55;103131.02;;;-4.07;66.90
77019;BME280;66044;53.142;17.962;2022-12-18T12:24:45;103129.04;;;-4.12;66.91
77019;BME280;66044;53.142;17.962;2022-12-18T12:27:37;103135.38;;;-4.14;66.74
77019;BME280;66044;53.142;17.962;2022-12-18T12:30:20;103137.52;;;-4.20;66.88
77019;BME280;66044;53.142;17.962;2022-12-18T12:33:03;103143.59;;;-4.17;66.81
77019;BME280;66044;53.142;17.962;2022-12-18T12:35:57;103148.54;;;-4.15;67.04
77019;BME280;66044;53.142;17.962;2022-12-18T12:38:56;103154.13;;;-4.22;67.10
77019;BME280;66044;53.142;17.962;2022-12-18T12:41:26;103159.67;;;-4.27;66.74
77019;BME280;66044;53.142;17.962;2022-12-18T12:44:23;103162.89;;;-4.35;67.12
77019;BME280;66044;53.142;17.962;2022-12-18T12:46:52;103169.75;;;-4.37;67.27
77019;BME280;66044;53.142;17.962;2022-12-18T12:49:28;103169.59;;;-4.37;67.45
77019;BME280;66044;53.142;17.962;2022-12-18T12:52:12;103167.31;;;-4.34;67.04
77019;BME280;66044;53.142;17.962;2022-12-18T12:54:40;103169.25;;;-4.31;67.53
77019;BME280;66044;53.142;17.962;2022-12-18T12:59:55;103177.86;;;-4.33;67.02
77019;BME280;66044;53.142;17.962;2022-12-18T13:05:40;103179.69;;;-4.38;67.26
77019;BME280;66044;53.142;17.962;2022-12-18T13:08:11;103183.39;;;-4.38;67.18
77019;BME280;66044;53.142;17.962;2022-12-18T13:10:39;103181.09;;;-4.37;67.22
77019;BME280;66044;53.142;17.962;2022-12-18T13:13:10;103176.13;;;-4.35;66.89
77019;BME280;66044;53.142;17.962;2022-12-18T13:15:40;103174.00;;;-4.34;67.09
77019;BME280;66044;53.142;17.962;2022-12-18T13:23:27;103171.39;;;-4.47;66.98
77019;BME280;66044;53.142;17.962;2022-12-18T13:33:49;103166.48;;;-4.73;67.41
77019;BME280;66044;53.142;17.962;2022-12-18T13:41:41;103170.23;;;-4.58;67.55
77019;BME280;66044;53.142;17.962;2022-12-18T13:44:19;103170.83;;;-4.50;67.24
77019;BME280;66044;53.142;17.962;2022-12-18T13:46:50;103172.19;;;-4.45;67.17
77019;BME280;66044;53.142;17.962;2022-12-18T13:49:41;103167.48;;;-4.53;67.12
77019;BME280;66044;53.142;17.962;2022-12-18T13:52:18;103165.94;;;-4.63;67.50
77019;BME280;66044;53.142;17.962;2022-12-18T13:54:50;103162.30;;;-4.65;67.52
77019;BME280;66044;53.142;17.962;2022-12-18T13:57:33;103166.11;;;-4.66;67.87
77019;BME280;66044;53.142;17.962;2022-12-18T14:00:23;103170.69;;;-4.73;67.60
77019;BME280;66044;53.142;17.962;2022-12-18T14:02:51;103170.02;;;-4.80;68.08
77019;BME280;66044;53.142;17.962;2022-12-18T14:05:23;103169.27;;;-4.83;67.81
77019;BME280;66044;53.142;17.962;2022-12-18T14:07:52;103168.48;;;-4.84;68.39
77019;BME280;66044;53.142;17.962;2022-12-18T14:10:20;103170.31;;;-4.84;68.01